Time;durP1;ratioP1;P1;durP2;ratioP2;P2;SDS_P1;SDS_P2;PMS_P1;PMS_P2;Temp;Humidity;BMP_temperature;BMP_pressure;BME280_temperature;BME280_humidity;BME280_pressure;Samples;Min_cycle;Max_cycle;Signal;HPM_P1;HPM_P2
2023/07/31 00:03:37;;;;;;;4.20;0.70;;;;;;;15.65;68.25;97663.03;10372125;28;20608;-67
2023/07/31 00:08:58;;;;;;;2.30;0.50;;;;;;;15.59;68.26;97653.56;10372697;28;20074;-67
2023/07/31 00:14:19;;;;;;;6.78;1.00;;;;;;;15.54;68.13;97660.34;10370085;28;20043;-67
2023/07/31 00:19:41;;;;;;;1.85;0.60;;;;;;;15.51;68.08;97655.97;10377794;28;20046;-67
2023/07/31 00:25:02;;;;;;;2.33;0.60;;;;;;;15.45;68.06;97664.88;10356296;28;20046;-68
2023/07/31 00:30:25;;;;;;;2.85;0.47;;;;;;;15.41;68.12;97665.41;10367249;28;20131;-69
2023/07/31 00:35:48;;;;;;;3.95;0.68;;;;;;;15.38;68.27;97674.38;10373311;28;20870;-67
2023/07/31 00:41:09;;;;;;;1.27;0.50;;;;;;;15.33;68.40;97665.00;10358492;28;20069;-67
2023/07/31 00:46:30;;;;;;;1.20;0.50;;;;;;;15.31;68.24;97672.63;10372355;28;20050;-66
2023/07/31 00:51:51;;;;;;;3.63;0.85;;;;;;;15.20;68.77;97667.88;10332698;28;20118;-67
2023/07/31 00:57:12;;;;;;;2.75;0.60;;;;;;;15.10;68.59;97659.69;10362883;28;20046;-67
2023/07/31 01:02:32;;;;;;;4.28;0.77;;;;;;;15.03;69.31;97669.16;10373996;28;20480;-67
2023/07/31 01:08:01;;;;;;;4.22;0.70;;;;;;;14.88;69.88;97653.72;10358834;28;20070;-67
2023/07/31 01:13:23;;;;;;;2.70;0.60;;;;;;;14.81;70.32;97663.19;10341691;28;20476;-67
2023/07/31 01:18:44;;;;;;;2.67;0.88;;;;;;;14.78;70.39;97653.94;10359307;28;20507;-67
2023/07/31 01:24:17;;;;;;;2.90;0.60;;;;;;;14.80;70.25;97650.50;10318280;28;20074;-67
2023/07/31 01:29:48;;;;;;;4.77;0.73;;;;;;;14.82;70.61;97639.34;10348704;28;20045;-66
2023/07/31 01:35:09;;;;;;;5.05;0.77;;;;;;;14.84;70.46;97634.53;10347061;28;20046;-67
2023/07/31 01:40:30;;;;;;;4.30;0.70;;;;;;;14.91;70.09;97637.66;10355748;28;20077;-67
2023/07/31 01:45:51;;;;;;;3.17;0.52;;;;;;;14.94;70.12;97627.97;10356733;28;20502;-67
2023/07/31 01:51:12;;;;;;;3.17;0.70;;;;;;;15.01;70.28;97633.25;10371604;28;20065;-67
2023/07/31 01:56:33;;;;;;;2.72;0.60;;;;;;;15.04;69.92;97626.38;10379524;28;20137;-67
2023/07/31 02:01:54;;;;;;;3.13;0.60;;;;;;;15.05;69.70;97613.75;10350285;28;20076;-67
2023/07/31 02:07:14;;;;;;;3.83;0.55;;;;;;;15.06;69.44;97612.44;10378048;28;20490;-67
2023/07/31 02:12:36;;;;;;;4.35;0.70;;;;;;;15.12;69.13;97611.97;10350345;28;20113;-67
2023/07/31 02:17:56;;;;;;;6.07;0.77;;;;;;;15.15;69.09;97616.34;10378189;28;20368;-67
2023/07/31 02:23:19;;;;;;;2.38;0.60;;;;;;;15.15;68.43;97611.47;10375956;28;20066;-67
2023/07/31 02:28:42;;;;;;;2.53;0.60;;;;;;;15.17;68.14;97614.38;10345891;28;20049;-66
2023/07/31 02:34:05;;;;;;;2.88;0.90;;;;;;;15.16;67.87;97601.66;10363308;28;20076;-67
2023/07/31 02:39:26;;;;;;;2.20;0.50;;;;;;;15.20;67.79;97611.66;10363963;28;20069;-67
2023/07/31 02:44:47;;;;;;;3.65;0.47;;;;;;;15.24;67.27;97620.25;10377180;28;20060;-67
2023/07/31 02:50:08;;;;;;;2.58;0.60;;;;;;;15.20;66.90;97609.56;10336318;28;20074;-67
2023/07/31 02:55:29;;;;;;;3.85;1.23;;;;;;;15.05;66.94;97608.16;10336277;28;20070;-67
2023/07/31 03:00:50;;;;;;;3.35;0.70;;;;;;;15.02;67.03;97608.69;10360420;28;20070;-67
2023/07/31 03:06:11;;;;;;;3.55;0.80;;;;;;;14.94;67.29;97611.81;10360561;28;20088;-67
2023/07/31 03:11:31;;;;;;;3.55;0.82;;;;;;;14.85;67.64;97607.16;10376250;28;20128;-67
2023/07/31 03:16:53;;;;;;;5.68;0.88;;;;;;;14.74;67.95;97602.41;10376159;28;20041;-67
2023/07/31 03:22:13;;;;;;;3.45;0.80;;;;;;;14.70;68.23;97613.47;10361368;28;20076;-67
2023/07/31 03:27:34;;;;;;;2.70;0.70;;;;;;;14.73;68.41;97606.59;10375585;28;20050;-67
2023/07/31 03:32:55;;;;;;;3.13;0.70;;;;;;;14.76;68.07;97605.31;10375469;28;20066;-67
2023/07/31 03:38:16;;;;;;;4.55;0.88;;;;;;;14.71;68.76;97601.59;10360126;28;20118;-67
2023/07/31 03:43:37;;;;;;;2.85;0.70;;;;;;;14.65;68.60;97618.16;10361401;28;20125;-67
2023/07/31 03:48:58;;;;;;;3.50;0.85;;;;;;;14.63;68.58;97611.72;10360671;28;20084;-67
2023/07/31 03:54:18;;;;;;;4.57;0.98;;;;;;;14.64;68.77;97608.25;10372209;28;20038;-68
2023/07/31 03:59:39;;;;;;;5.40;0.88;;;;;;;14.63;69.04;97620.13;10353743;28;20070;-67
2023/07/31 04:05:00;;;;;;;5.20;1.05;;;;;;;14.72;68.92;97610.75;10371698;28;20074;-67
2023/07/31 04:10:21;;;;;;;4.30;0.82;;;;;;;14.84;68.96;97622.56;10374938;28;20045;-67
2023/07/31 04:15:43;;;;;;;1.95;0.60;;;;;;;14.98;68.89;97617.66;10344120;28;20047;-67
2023/07/31 04:21:03;;;;;;;5.97;1.00;;;;;;;15.09;68.83;97608.34;10349941;28;20076;-68
2023/07/31 04:26:24;;;;;;;4.30;0.88;;;;;;;15.27;68.40;97613.41;10359621;28;20052;-67
2023/07/31 04:31:48;;;;;;;2.97;0.73;;;;;;;15.37;68.14;97611.06;10374425;28;20064;-67
2023/07/31 04:37:09;;;;;;;6.43;1.02;;;;;;;15.43;67.73;97614.84;10359486;28;20445;-67
2023/07/31 04:42:30;;;;;;;5.70;1.05;;;;;;;15.50;67.50;97610.25;10373056;28;20073;-67
2023/07/31 04:47:51;;;;;;;5.32;0.80;;;;;;;15.50;67.21;97601.81;10359318;28;20535;-67
2023/07/31 04:53:12;;;;;;;4.55;1.02;;;;;;;15.66;66.77;97599.03;10374090;28;20074;-68
2023/07/31 04:58:32;;;;;;;3.40;0.70;;;;;;;15.73;66.41;97601.50;10372764;28;20074;-67
2023/07/31 05:03:53;;;;;;;4.57;0.95;;;;;;;15.88;66.19;97613.38;10373453;28;20074;-68
2023/07/31 05:09:14;;;;;;;4.30;0.90;;;;;;;16.10;65.91;97617.19;10359183;28;20129;-69
2023/07/31 05:14:35;;;;;;;2.55;0.82;;;;;;;16.33;64.72;97610.44;10358879;28;20488;-68
2023/07/31 05:19:55;;;;;;;2.88;0.82;;;;;;;16.42;64.54;97617.88;10358816;28;20126;-67
2023/07/31 05:25:16;;;;;;;3.17;0.90;;;;;;;16.55;63.72;97619.81;10372118;28;20129;-69
2023/07/31 05:30:37;;;;;;;4.45;1.25;;;;;;;16.64;63.24;97617.34;10376768;28;20073;-70
2023/07/31 05:35:58;;;;;;;4.05;1.05;;;;;;;16.83;63.11;97611.84;10376641;28;20475;-68
2023/07/31 05:41:19;;;;;;;3.78;1.10;;;;;;;17.06;62.51;97607.84;10377828;28;20121;-70
2023/07/31 05:46:39;;;;;;;4.80;0.70;;;;;;;17.31;61.74;97609.53;10377413;28;20186;-68
2023/07/31 05:52:01;;;;;;;5.63;0.70;;;;;;;17.63;61.26;97626.97;10375377;28;20140;-70
2023/07/31 05:57:21;;;;;;;6.55;0.77;;;;;;;17.67;59.09;97603.84;10384902;28;20077;-68
2023/07/31 06:03:15;;;;;;;9.77;1.15;;;;;;;18.01;59.27;97593.81;10376817;28;20093;-68
2023/07/31 06:08:36;;;;;;;5.85;0.73;;;;;;;18.80;57.89;97583.81;10375209;28;20459;-67
2023/07/31 06:13:57;;;;;;;3.75;1.10;;;;;;;19.89;55.65;97589.31;10375302;28;20116;-67
2023/07/31 06:19:18;;;;;;;5.13;1.40;;;;;;;20.88;52.71;97578.47;10376552;28;20066;-67
2023/07/31 06:24:38;;;;;;;6.15;0.70;;;;;;;22.53;49.54;97580.59;10377769;28;20125;-68
2023/07/31 06:29:59;;;;;;;4.82;0.55;;;;;;;22.50;46.66;97575.56;10377774;28;20074;-68
2023/07/31 06:35:20;;;;;;;4.93;0.68;;;;;;;21.87;46.03;97577.88;10378748;28;20576;-67
2023/07/31 06:40:41;;;;;;;3.03;0.73;;;;;;;20.68;47.77;97568.06;10362226;28;20062;-67
2023/07/31 06:46:08;;;;;;;4.70;0.90;;;;;;;19.84;49.37;97561.53;10377950;28;20045;-67
2023/07/31 06:51:31;;;;;;;3.58;0.70;;;;;;;19.47;50.77;97571.75;10377320;28;20066;-67
2023/07/31 06:56:52;;;;;;;4.05;0.60;;;;;;;19.41;51.12;97597.78;10377683;28;20072;-67
2023/07/31 07:02:13;;;;;;;3.75;0.68;;;;;;;19.34;51.49;97584.84;10377176;28;20129;-67
2023/07/31 07:07:34;;;;;;;6.80;0.70;;;;;;;19.50;51.74;97570.44;10377465;28;20472;-67
2023/07/31 07:12:55;;;;;;;5.85;0.73;;;;;;;19.90;51.63;97573.75;10376089;28;20145;-67
2023/07/31 07:18:16;;;;;;;3.25;0.80;;;;;;;20.14;50.01;97565.19;10376678;28;20145;-67
2023/07/31 07:23:37;;;;;;;9.18;0.80;;;;;;;19.95;50.34;97566.09;10375825;28;20501;-67
2023/07/31 07:28:58;;;;;;;4.60;1.17;;;;;;;20.74;49.89;97567.47;10375562;28;20080;-67
2023/07/31 07:34:27;;;;;;;4.43;0.65;;;;;;;21.10;48.14;97576.16;10376122;28;20145;-67
2023/07/31 07:39:48;;;;;;;2.95;0.63;;;;;;;20.81;48.44;97569.78;10375032;28;20097;-68
2023/07/31 07:45:09;;;;;;;3.10;0.52;;;;;;;20.36;48.63;97558.69;10361079;28;20169;-67
2023/07/31 07:50:31;;;;;;;3.47;0.90;;;;;;;20.15;49.43;97572.31;10375386;28;20129;-66
2023/07/31 07:55:51;;;;;;;5.32;1.08;;;;;;;20.00;49.88;97584.66;10375619;28;20090;-67
2023/07/31 08:01:12;;;;;;;3.47;0.70;;;;;;;19.98;49.85;97587.44;10375171;28;20121;-66
2023/07/31 08:06:33;;;;;;;4.78;0.80;;;;;;;19.99;50.10;97583.94;10375265;28;20109;-67
2023/07/31 08:11:54;;;;;;;5.55;0.70;;;;;;;19.95;50.44;97592.31;10374032;28;20073;-66
2023/07/31 08:17:15;;;;;;;2.92;0.55;;;;;;;20.10;50.85;97581.38;10374155;28;20069;-67
2023/07/31 08:22:35;;;;;;;2.90;0.80;;;;;;;20.06;50.86;97603.91;10374466;28;20556;-67
2023/07/31 08:27:57;;;;;;;5.50;0.95;;;;;;;20.01;51.16;97586.81;10359994;28;20137;-67
2023/07/31 08:33:17;;;;;;;7.93;0.98;;;;;;;19.80;51.38;97584.09;10374043;28;20042;-67
2023/07/31 08:38:38;;;;;;;2.30;0.70;;;;;;;19.58;51.86;97596.19;10373309;28;20065;-67
2023/07/31 08:43:59;;;;;;;2.65;0.70;;;;;;;19.53;52.30;97586.09;10373424;28;20042;-67
2023/07/31 08:49:20;;;;;;;4.57;1.02;;;;;;;19.63;52.75;97594.19;10373081;28;20126;-67
2023/07/31 08:54:41;;;;;;;3.78;0.70;;;;;;;19.70;52.74;97582.41;10373051;28;20431;-67
2023/07/31 09:00:03;;;;;;;3.75;0.95;;;;;;;19.70;52.76;97571.06;10372905;28;20443;-67
2023/07/31 09:05:23;;;;;;;6.32;1.02;;;;;;;19.73;52.67;97581.06;10379623;28;20603;-68
2023/07/31 09:10:47;;;;;;;3.30;0.80;;;;;;;19.68;52.84;97573.81;10380782;28;20137;-67
2023/07/31 09:16:09;;;;;;;4.43;1.00;;;;;;;19.74;53.10;97581.78;10380813;28;20125;-67
2023/07/31 09:21:30;;;;;;;5.75;1.02;;;;;;;19.94;52.93;97581.63;10380403;28;20500;-66
2023/07/31 09:26:53;;;;;;;2.85;0.90;;;;;;;20.19;52.94;97575.25;10380129;28;20092;-67
2023/07/31 09:32:17;;;;;;;5.90;1.10;;;;;;;20.50;52.47;97570.44;10366619;28;20046;-67
2023/07/31 09:37:38;;;;;;;4.32;1.00;;;;;;;21.02;51.71;97575.94;10380628;28;20117;-67
2023/07/31 09:43:03;;;;;;;4.88;1.02;;;;;;;21.69;50.06;97566.84;10380451;28;20042;-68
2023/07/31 09:48:25;;;;;;;3.03;1.08;;;;;;;22.81;48.62;97557.59;10365872;28;20096;-68
2023/07/31 09:53:50;;;;;;;4.40;1.02;;;;;;;24.07;45.02;97563.66;10379071;28;20061;-67
2023/07/31 09:59:11;;;;;;;3.13;1.20;;;;;;;25.64;42.66;97545.72;10379015;28;20066;-68
2023/07/31 10:04:32;;;;;;;3.80;1.20;;;;;;;27.78;38.67;97528.72;10378404;28;20131;-67
2023/07/31 10:09:54;;;;;;;4.45;1.38;;;;;;;28.00;37.61;97528.66;10378594;28;20157;-68
2023/07/31 10:15:15;;;;;;;;;;;;;;;27.86;35.90;97517.94;10378610;28;20099;-68
2023/07/31 10:20:36;;;;;;;5.03;0.90;;;;;;;27.19;36.81;97511.69;10364324;28;19961;-67
2023/07/31 10:25:57;;;;;;;5.43;1.20;;;;;;;26.97;37.45;97506.69;10364395;28;20118;-68
2023/07/31 10:31:19;;;;;;;3.03;1.08;;;;;;;26.94;36.83;97508.84;10377678;28;20168;-68
2023/07/31 10:36:40;;;;;;;2.42;1.00;;;;;;;26.91;36.47;97495.22;10364013;28;20065;-67
2023/07/31 10:42:12;;;;;;;4.82;1.23;;;;;;;26.22;37.09;97501.63;10377283;28;20081;-68
2023/07/31 10:47:38;;;;;;;4.05;1.38;;;;;;;26.74;37.02;97488.81;10377054;28;20053;-67
2023/07/31 10:53:00;;;;;;;5.05;1.13;;;;;;;27.63;35.42;97482.19;10376989;28;20042;-67
2023/07/31 10:58:22;;;;;;;3.00;0.80;;;;;;;27.83;34.43;97476.38;10363071;28;20453;-67
2023/07/31 11:03:51;;;;;;;3.50;0.77;;;;;;;28.11;34.49;97457.59;10376540;28;20129;-68
2023/07/31 11:09:13;;;;;;;2.92;0.90;;;;;;;28.92;33.74;97462.72;10376059;28;20096;-68
2023/07/31 11:14:34;;;;;;;3.17;1.13;;;;;;;28.86;33.94;97457.03;10362454;28;20506;-68
2023/07/31 11:19:55;;;;;;;3.13;0.93;;;;;;;28.43;33.13;97463.13;10375581;28;20041;-67
2023/07/31 11:25:16;;;;;;;3.25;0.80;;;;;;;27.00;34.35;97463.00;10375810;28;20069;-68
2023/07/31 11:30:37;;;;;;;2.50;0.80;;;;;;;26.94;35.47;97465.19;10375468;28;20050;-67
2023/07/31 11:35:58;;;;;;;2.67;0.95;;;;;;;26.70;35.15;97457.31;10375142;28;20477;-67
2023/07/31 11:41:18;;;;;;;3.38;0.82;;;;;;;25.96;35.74;97457.25;10375853;28;20160;-68
2023/07/31 11:46:39;;;;;;;1.55;0.60;;;;;;;26.51;36.27;97451.59;10375571;28;20057;-68
2023/07/31 11:52:01;;;;;;;3.00;1.00;;;;;;;26.40;35.76;97447.31;10374520;28;20112;-67
2023/07/31 11:57:22;;;;;;;4.25;0.98;;;;;;;27.11;35.44;97432.22;10374221;28;20121;-68
2023/07/31 12:02:42;;;;;;;4.43;0.70;;;;;;;26.49;34.83;97433.72;10374812;28;20452;-68
2023/07/31 12:08:08;;;;;;;2.53;0.60;;;;;;;26.62;35.31;97402.94;10375102;28;20038;-68
2023/07/31 12:13:30;;;;;;;3.53;0.90;;;;;;;25.95;35.63;97421.50;10373600;28;20122;-68
2023/07/31 12:18:51;;;;;;;2.47;0.75;;;;;;;26.30;36.19;97427.25;10373777;28;20121;-67
2023/07/31 12:24:11;;;;;;;2.20;0.70;;;;;;;26.14;35.93;97421.50;10374575;28;20119;-67
2023/07/31 12:29:36;;;;;;;4.45;0.68;;;;;;;26.34;36.17;97420.81;10374162;28;20072;-68
2023/07/31 12:35:01;;;;;;;4.53;0.57;;;;;;;26.35;35.99;97400.09;10373136;28;20446;-68
2023/07/31 12:40:22;;;;;;;2.83;0.60;;;;;;;26.50;34.97;97400.81;10372342;28;20065;-68
2023/07/31 12:45:53;;;;;;;2.47;0.60;;;;;;;26.80;35.26;97397.91;10374163;28;20076;-68
2023/07/31 12:51:14;;;;;;;2.67;0.70;;;;;;;27.20;34.87;97384.19;10373893;28;20080;-68
2023/07/31 12:56:35;;;;;;;1.55;0.52;;;;;;;27.15;34.03;97382.81;10373780;28;20066;-67
2023/07/31 13:01:56;;;;;;;4.85;0.60;;;;;;;27.19;33.68;97377.03;10372480;28;20185;-67
2023/07/31 13:07:16;;;;;;;3.35;0.68;;;;;;;27.35;33.38;97374.13;10373498;28;20072;-68
2023/07/31 13:12:37;;;;;;;2.72;0.50;;;;;;;27.11;33.84;97374.91;10372498;28;20065;-67
2023/07/31 13:17:58;;;;;;;5.35;0.80;;;;;;;27.26;33.73;97367.72;10373101;28;20100;-68
2023/07/31 13:23:19;;;;;;;3.60;0.60;;;;;;;27.21;33.58;97359.84;10372292;28;20121;-67
2023/07/31 13:28:39;;;;;;;2.35;0.57;;;;;;;27.23;33.76;97357.00;10372906;28;20058;-68
2023/07/31 13:34:00;;;;;;;3.35;0.70;;;;;;;27.16;33.96;97347.00;10373040;28;20396;-68
2023/07/31 13:39:21;;;;;;;2.85;0.63;;;;;;;27.06;33.99;97339.16;10372691;28;20049;-68
2023/07/31 13:44:42;;;;;;;2.37;0.90;;;;;;;26.72;33.75;97329.22;10371837;28;20050;-68
2023/07/31 13:50:04;;;;;;;2.93;0.97;;;;;;;26.49;34.00;97337.16;10376852;28;20041;-68
2023/07/31 13:55:25;;;;;;;2.38;0.55;;;;;;;25.88;34.58;97331.44;10378776;28;20042;-67
2023/07/31 14:00:46;;;;;;;3.42;0.70;;;;;;;25.67;34.90;97327.81;10378790;28;20045;-68
2023/07/31 14:06:06;;;;;;;2.38;0.60;;;;;;;26.01;35.06;97320.72;10379033;28;20077;-68
2023/07/31 14:11:27;;;;;;;3.70;0.95;;;;;;;26.29;34.78;97311.41;10378363;28;20041;-68
2023/07/31 14:16:48;;;;;;;3.05;0.90;;;;;;;26.52;34.66;97315.66;10378301;28;20043;-68
2023/07/31 14:22:09;;;;;;;3.87;0.90;;;;;;;26.35;34.25;97313.56;10378208;28;20038;-67
2023/07/31 14:27:31;;;;;;;2.47;0.90;;;;;;;25.77;34.41;97289.25;10378754;28;20120;-67
2023/07/31 14:32:52;;;;;;;2.45;0.93;;;;;;;25.05;35.48;97286.25;10377616;28;20348;-67
2023/07/31 14:38:13;;;;;;;2.83;1.00;;;;;;;24.61;36.68;97278.22;10378627;28;20061;-68
2023/07/31 14:43:34;;;;;;;4.88;0.98;;;;;;;24.61;37.02;97269.66;10377054;28;20456;-68
2023/07/31 14:48:54;;;;;;;2.90;0.82;;;;;;;24.83;37.21;97266.88;10377060;28;20062;-68
2023/07/31 14:54:15;;;;;;;4.18;1.15;;;;;;;24.44;37.23;97251.03;10377583;28;20455;-68
2023/07/31 14:59:36;;;;;;;3.97;1.00;;;;;;;24.16;37.69;97246.56;10375598;28;20053;-68
2023/07/31 15:04:57;;;;;;;3.50;0.82;;;;;;;24.09;37.86;97238.66;10376962;28;20077;-67
2023/07/31 15:10:18;;;;;;;6.97;1.45;;;;;;;24.42;37.65;97234.63;10376281;28;20046;-68
2023/07/31 15:15:39;;;;;;;1.93;0.90;;;;;;;24.94;37.39;97224.81;10376191;28;20065;-68
2023/07/31 15:21:00;;;;;;;3.65;1.00;;;;;;;25.35;36.49;97219.91;10375558;28;20124;-68
2023/07/31 15:26:21;;;;;;;2.85;1.15;;;;;;;25.28;35.99;97214.91;10376262;28;20168;-68
2023/07/31 15:31:42;;;;;;;3.05;1.20;;;;;;;25.10;36.11;97210.63;10361554;28;20168;-67
2023/07/31 15:37:03;;;;;;;3.88;0.85;;;;;;;24.99;36.11;97205.53;10375307;28;20092;-67
2023/07/31 15:42:24;;;;;;;3.13;0.93;;;;;;;24.94;36.56;97201.28;10375899;28;20449;-67
2023/07/31 15:47:45;;;;;;;2.80;0.88;;;;;;;24.84;36.57;97196.25;10374861;28;20124;-67
2023/07/31 15:53:05;;;;;;;5.63;1.00;;;;;;;24.58;37.34;97207.56;10375687;28;20077;-68
2023/07/31 15:58:26;;;;;;;3.22;1.13;;;;;;;24.25;37.91;97191.00;10374229;28;20049;-68
2023/07/31 16:03:49;;;;;;;1.73;0.98;;;;;;;24.17;38.27;97210.22;10360655;28;20479;-68
2023/07/31 16:09:10;;;;;;;4.50;1.13;;;;;;;23.82;38.54;97210.00;10374144;28;20180;-67
2023/07/31 16:14:32;;;;;;;2.97;1.20;;;;;;;23.59;39.58;97214.81;10373713;28;20476;-67
2023/07/31 16:19:53;;;;;;;3.97;1.33;;;;;;;23.53;39.94;97209.03;10373374;28;20168;-69
2023/07/31 16:25:13;;;;;;;4.25;1.10;;;;;;;23.52;40.11;97219.00;10374832;28;20456;-67
2023/07/31 16:30:35;;;;;;;4.05;1.10;;;;;;;23.56;39.98;97210.50;10373559;28;20147;-67
2023/07/31 16:35:55;;;;;;;2.13;0.80;;;;;;;23.54;40.22;97204.06;10373268;28;20041;-67
2023/07/31 16:41:16;;;;;;;3.55;1.30;;;;;;;23.52;40.16;97193.38;10373055;28;20125;-67
2023/07/31 16:46:37;;;;;;;2.75;1.15;;;;;;;23.49;40.20;97197.63;10373107;28;20092;-67
2023/07/31 16:51:57;;;;;;;3.00;1.20;;;;;;;23.53;40.26;97199.78;10374008;28;20113;-67
2023/07/31 16:57:19;;;;;;;3.22;1.20;;;;;;;23.50;40.56;97193.34;10372875;28;20065;-68
2023/07/31 17:02:40;;;;;;;7.43;1.50;;;;;;;23.45;40.39;97188.31;10372997;28;20085;-67
2023/07/31 17:08:01;;;;;;;2.83;1.08;;;;;;;23.23;40.88;97183.16;10372927;28;20034;-67
2023/07/31 17:13:22;;;;;;;2.47;1.08;;;;;;;23.22;41.03;97178.88;10372454;28;20507;-67
2023/07/31 17:18:42;;;;;;;5.30;1.40;;;;;;;23.20;41.13;97171.03;10372549;28;20179;-67
2023/07/31 17:24:03;;;;;;;4.57;1.20;;;;;;;23.09;41.54;97178.06;10375391;28;20122;-67
2023/07/31 17:29:29;;;;;;;4.97;1.98;;;;;;;23.05;41.64;97169.47;10380408;28;20469;-67
2023/07/31 17:34:49;;;;;;;3.72;1.35;;;;;;;22.89;41.66;97161.50;10379986;28;20046;-67
2023/07/31 17:40:10;;;;;;;7.38;1.55;;;;;;;22.73;41.94;97162.03;10379872;28;20072;-67
2023/07/31 17:45:33;;;;;;;4.78;1.60;;;;;;;22.64;42.27;97162.63;10380980;28;20041;-66
2023/07/31 17:50:54;;;;;;;9.20;1.80;;;;;;;22.49;42.30;97159.63;10379465;28;20072;-67
2023/07/31 17:56:14;;;;;;;4.80;1.60;;;;;;;22.34;42.83;97152.34;10379294;28;20072;-67
2023/07/31 18:01:35;;;;;;;2.83;1.23;;;;;;;22.22;42.96;97150.06;10378835;28;20138;-67
2023/07/31 18:06:58;;;;;;;;;;;;;;;22.04;43.24;97149.81;10380310;28;20113;-67
2023/07/31 18:12:18;;;;;;;4.85;1.55;;;;;;;21.86;43.50;97147.44;10379707;28;20006;-67
2023/07/31 18:17:39;;;;;;;4.43;1.25;;;;;;;21.76;43.48;97157.94;10378450;28;20117;-67
2023/07/31 18:23:00;;;;;;;3.33;1.40;;;;;;;21.60;44.36;97147.06;10378325;28;20070;-67
2023/07/31 18:28:20;;;;;;;4.43;1.63;;;;;;;21.43;44.65;97152.50;10378896;28;20092;-67
2023/07/31 18:33:42;;;;;;;5.18;1.63;;;;;;;21.30;45.07;97155.81;10377789;28;20559;-66
2023/07/31 18:39:03;;;;;;;4.95;1.38;;;;;;;21.15;45.12;97157.69;10378550;28;20568;-67
2023/07/31 18:44:23;;;;;;;4.65;1.65;;;;;;;20.99;46.01;97148.91;10378327;28;20500;-67
2023/07/31 18:49:44;;;;;;;5.70;1.70;;;;;;;20.86;47.13;97145.88;10376947;28;20080;-67
2023/07/31 18:55:05;;;;;;;3.60;1.52;;;;;;;20.76;46.63;97140.00;10376845;28;20169;-67
2023/07/31 19:00:26;;;;;;;4.72;1.60;;;;;;;20.74;46.84;97142.06;10376687;28;20460;-66
2023/07/31 19:05:47;;;;;;;5.72;2.10;;;;;;;20.67;47.54;97146.94;10362837;28;20129;-67
2023/07/31 19:11:07;;;;;;;4.00;1.83;;;;;;;20.61;47.73;97149.66;10376443;28;20058;-66
2023/07/31 19:16:32;;;;;;;5.28;2.10;;;;;;;20.60;48.04;97153.88;10377123;28;20463;-66
2023/07/31 19:21:52;;;;;;;7.72;2.03;;;;;;;20.61;48.41;97137.59;10376751;28;20192;-67
2023/07/31 19:27:13;;;;;;;6.35;1.70;;;;;;;20.51;48.65;97141.66;10375803;28;20093;-67
2023/07/31 19:32:34;;;;;;;6.75;2.08;;;;;;;20.45;48.79;97132.31;10375731;28;20070;-67
2023/07/31 19:37:55;;;;;;;3.30;1.63;;;;;;;20.39;49.27;97115.91;10376834;28;20073;-67
2023/07/31 19:43:15;;;;;;;6.30;2.08;;;;;;;20.34;49.16;97099.50;10375235;28;20124;-67
2023/07/31 19:48:37;;;;;;;6.00;1.80;;;;;;;20.27;49.48;97104.34;10374775;28;20072;-67
2023/07/31 19:53:58;;;;;;;3.30;1.40;;;;;;;20.20;49.85;97097.84;10374773;28;20037;-66
2023/07/31 19:59:19;;;;;;;6.85;1.67;;;;;;;20.19;50.12;97093.56;10361242;28;20530;-67
2023/07/31 20:04:40;;;;;;;15.20;2.30;;;;;;;20.18;50.44;97089.28;10374424;28;20137;-67
2023/07/31 20:10:00;;;;;;;6.80;1.63;;;;;;;20.21;50.30;97079.44;10375476;28;20104;-67
2023/07/31 20:15:22;;;;;;;5.72;1.77;;;;;;;20.20;50.64;97080.84;10375081;28;20465;-67
2023/07/31 20:20:42;;;;;;;4.97;1.80;;;;;;;20.15;50.68;97070.81;10374106;28;20164;-67
2023/07/31 20:26:03;;;;;;;6.65;1.75;;;;;;;20.16;50.81;97066.56;10374208;28;20074;-67
2023/07/31 20:31:24;;;;;;;7.82;1.50;;;;;;;20.19;50.84;97067.34;10360025;28;20066;-67
2023/07/31 20:36:44;;;;;;;7.07;1.63;;;;;;;20.15;50.57;97067.97;10373745;28;20069;-67
2023/07/31 20:42:06;;;;;;;4.38;1.75;;;;;;;20.13;50.75;97056.59;10374415;28;20073;-67
2023/07/31 20:47:26;;;;;;;5.88;1.70;;;;;;;20.11;50.89;97053.75;10374406;28;20046;-67
2023/07/31 20:52:47;;;;;;;5.90;1.75;;;;;;;20.09;51.05;97045.22;10373204;28;20142;-67
2023/07/31 20:58:08;;;;;;;6.25;1.75;;;;;;;20.07;51.12;97045.16;10374916;28;20127;-66
2023/07/31 21:03:30;;;;;;;4.13;1.77;;;;;;;20.01;51.44;97030.88;10381511;28;20130;-66
2023/07/31 21:08:52;;;;;;;5.13;1.70;;;;;;;19.91;51.65;97028.56;10382148;28;20046;-67
2023/07/31 21:14:12;;;;;;;5.75;1.75;;;;;;;19.76;51.87;97017.63;10381101;28;20117;-67
2023/07/31 21:19:33;;;;;;;4.65;1.80;;;;;;;19.67;52.00;97017.47;10380644;28;20137;-67
2023/07/31 21:24:54;;;;;;;8.30;2.08;;;;;;;19.65;52.10;97016.72;10380441;28;20533;-67
2023/07/31 21:30:15;;;;;;;4.72;1.63;;;;;;;19.62;52.42;97010.31;10380217;28;20069;-67
2023/07/31 21:35:36;;;;;;;3.45;1.55;;;;;;;19.67;52.34;97011.81;10380146;28;20117;-67
2023/07/31 21:40:56;;;;;;;4.38;1.90;;;;;;;19.68;52.25;97001.91;10380861;28;20138;-66
2023/07/31 21:46:18;;;;;;;4.70;1.58;;;;;;;19.69;52.19;96992.06;10379810;28;20068;-67
2023/07/31 21:51:39;;;;;;;5.68;1.90;;;;;;;19.68;52.61;96989.88;10365981;28;20510;-66
2023/07/31 21:56:59;;;;;;;4.60;1.48;;;;;;;19.63;52.61;96983.44;10380190;28;20112;-66
2023/07/31 22:02:20;;;;;;;4.25;1.73;;;;;;;19.57;52.45;96986.13;10380060;28;20173;-67
2023/07/31 22:07:40;;;;;;;3.85;1.80;;;;;;;19.51;52.80;96977.50;10378773;28;20484;-67
2023/07/31 22:13:01;;;;;;;4.75;1.73;;;;;;;19.48;53.20;96969.63;10378531;28;20550;-67
2023/07/31 22:18:23;;;;;;;8.10;2.00;;;;;;;19.43;53.40;96969.56;10378951;28;20112;-67
2023/07/31 22:23:43;;;;;;;6.80;2.17;;;;;;;19.41;53.71;96957.47;10378208;28;20205;-67
2023/07/31 22:29:05;;;;;;;5.00;1.90;;;;;;;19.42;54.53;96953.25;10378215;28;20167;-67
2023/07/31 22:34:25;;;;;;;8.57;2.45;;;;;;;19.45;54.09;96958.28;10377867;28;20492;-67
2023/07/31 22:39:46;;;;;;;5.57;1.73;;;;;;;19.47;54.03;96951.22;10391678;28;20117;-67
2023/07/31 22:45:07;;;;;;;4.28;1.75;;;;;;;19.45;54.15;96940.56;10378170;28;20074;-67
2023/07/31 22:50:28;;;;;;;4.20;1.88;;;;;;;19.45;54.00;96929.25;10377405;28;20208;-67
2023/07/31 22:55:48;;;;;;;4.75;1.85;;;;;;;19.39;54.56;96931.94;10376906;28;20121;-67
2023/07/31 23:01:10;;;;;;;3.55;1.73;;;;;;;19.33;54.56;96926.91;10376778;28;20198;-67
2023/07/31 23:06:30;;;;;;;3.63;1.90;;;;;;;19.31;54.68;96931.81;10376762;28;20520;-67
2023/07/31 23:11:51;;;;;;;3.78;1.67;;;;;;;19.24;55.35;96936.63;10377266;28;20124;-67
2023/07/31 23:17:12;;;;;;;6.40;1.88;;;;;;;19.24;55.31;96936.63;10376305;28;20082;-67
2023/07/31 23:22:33;;;;;;;7.68;1.85;;;;;;;19.25;55.84;96946.53;10376046;28;20069;-67
2023/07/31 23:27:54;;;;;;;4.53;2.42;;;;;;;19.24;56.19;96933.06;10375841;28;20073;-67
2023/07/31 23:33:14;;;;;;;5.57;2.38;;;;;;;19.21;56.77;96940.81;10375552;28;20125;-67
2023/07/31 23:38:35;;;;;;;5.32;2.20;;;;;;;19.19;57.01;96928.72;10375420;28;20165;-67
2023/07/31 23:43:56;;;;;;;5.72;2.20;;;;;;;19.11;57.80;96932.81;10361708;28;20170;-66
2023/07/31 23:49:17;;;;;;;3.65;1.80;;;;;;;19.05;58.00;96935.50;10374818;28;20077;-67
2023/07/31 23:54:38;;;;;;;6.20;1.85;;;;;;;18.94;58.91;96925.38;10374909;28;20460;-67
2023/07/31 23:59:59;;;;;;;5.10;1.80;;;;;;;18.81;59.38;96920.84;10374652;28;20121;-66
